sensor_id;sensor_type;location;lat;lon;timestamp;pressure;altitude;pressure_sealevel;temperature;humidity
42771;BME280;28426;42.872;25.314;2023-03-13T00:01:21;97325.66;;;0.56;65.01
42771;BME280;28426;42.872;25.314;2023-03-13T00:03:52;97324.84;;;0.67;63.88
42771;BME280;28426;42.872;25.314;2023-03-13T00:06:25;97320.66;;;0.64;63.86
42771;BME280;28426;42.872;25.314;2023-03-13T00:08:58;97317.88;;;0.54;64.27
42771;BME280;28426;42.872;25.314;2023-03-13T00:11:30;97316.94;;;0.44;64.34
42771;BME280;28426;42.872;25.314;2023-03-13T00:14:04;97327.91;;;0.37;64.38
42771;BME280;28426;42.872;25.314;2023-03-13T00:16:37;97310.97;;;0.42;64.56
42771;BME280;28426;42.872;25.314;2023-03-13T00:19:08;97319.47;;;0.57;63.93
42771;BME280;28426;42.872;25.314;2023-03-13T00:21:42;97318.16;;;0.62;63.33
42771;BME280;28426;42.872;25.314;2023-03-13T00:24:12;97315.25;;;0.54;64.01
42771;BME280;28426;42.872;25.314;2023-03-13T00:26:43;97315.97;;;0.45;63.70
42771;BME280;28426;42.872;25.314;2023-03-13T00:29:13;97321.91;;;0.35;64.46
42771;BME280;28426;42.872;25.314;2023-03-13T00:31:47;97322.75;;;0.36;64.92
42771;BME280;28426;42.872;25.314;2023-03-13T00:34:17;97318.97;;;0.51;64.18
42771;BME280;28426;42.872;25.314;2023-03-13T00:36:49;97316.84;;;0.57;63.93
42771;BME280;28426;42.872;25.314;2023-03-13T00:39:19;97321.00;;;0.48;64.31
42771;BME280;28426;42.872;25.314;2023-03-13T00:41:50;97322.88;;;0.34;64.86
42771;BME280;28426;42.872;25.314;2023-03-13T00:44:21;97327.16;;;0.24;65.48
42771;BME280;28426;42.872;25.314;2023-03-13T00:46:54;97317.22;;;0.16;65.89
42771;BME280;28426;42.872;25.314;2023-03-13T00:49:25;97315.47;;;0.28;66.36
42771;BME280;28426;42.872;25.314;2023-03-13T00:51:56;97315.16;;;0.44;65.84
42771;BME280;28426;42.872;25.314;2023-03-13T00:54:26;97311.22;;;0.50;65.11
42771;BME280;28426;42.872;25.314;2023-03-13T00:56:57;97309.28;;;0.41;64.92
42771;BME280;28426;42.872;25.314;2023-03-13T00:59:27;97314.50;;;0.29;64.89
42771;BME280;28426;42.872;25.314;2023-03-13T01:02:01;97318.78;;;0.19;65.90
42771;BME280;28426;42.872;25.314;2023-03-13T01:04:32;97313.25;;;0.10;65.56
42771;BME280;28426;42.872;25.314;2023-03-13T01:07:02;97304.75;;;0.07;65.83
42771;BME280;28426;42.872;25.314;2023-03-13T01:09:33;97309.50;;;0.02;66.70
42771;BME280;28426;42.872;25.314;2023-03-13T01:12:04;97300.53;;;-0.07;66.76
42771;BME280;28426;42.872;25.314;2023-03-13T01:14:36;97307.94;;;-0.12;66.88
42771;BME280;28426;42.872;25.314;2023-03-13T01:17:09;97314.44;;;-0.18;66.99
42771;BME280;28426;42.872;25.314;2023-03-13T01:19:39;97312.38;;;-0.26;67.50
42771;BME280;28426;42.872;25.314;2023-03-13T01:22:10;97318.19;;;-0.34;67.71
42771;BME280;28426;42.872;25.314;2023-03-13T01:24:40;97322.19;;;-0.41;68.12
42771;BME280;28426;42.872;25.314;2023-03-13T01:27:12;97318.50;;;-0.38;68.83
42771;BME280;28426;42.872;25.314;2023-03-13T01:29:43;97326.22;;;-0.24;68.40
42771;BME280;28426;42.872;25.314;2023-03-13T01:32:16;97326.19;;;-0.11;67.68
42771;BME280;28426;42.872;25.314;2023-03-13T01:34:47;97328.03;;;0.00;67.22
42771;BME280;28426;42.872;25.314;2023-03-13T01:37:17;97328.91;;;0.12;66.62
42771;BME280;28426;42.872;25.314;2023-03-13T01:39:48;97334.38;;;0.20;66.33
42771;BME280;28426;42.872;25.314;2023-03-13T01:42:19;97337.41;;;0.27;66.10
42771;BME280;28426;42.872;25.314;2023-03-13T01:44:51;97342.19;;;0.33;66.00
42771;BME280;28426;42.872;25.314;2023-03-13T01:47:27;97343.66;;;0.37;65.51
42771;BME280;28426;42.872;25.314;2023-03-13T01:52:54;97353.25;;;0.50;65.19
42771;BME280;28426;42.872;25.314;2023-03-13T01:55:28;97358.34;;;0.51;65.10
42771;BME280;28426;42.872;25.314;2023-03-13T01:57:59;97362.03;;;0.49;64.92
42771;BME280;28426;42.872;25.314;2023-03-13T02:00:31;97375.66;;;0.43;65.03
42771;BME280;28426;42.872;25.314;2023-03-13T02:03:14;97360.34;;;0.36;65.28
42771;BME280;28426;42.872;25.314;2023-03-13T02:05:47;97374.41;;;0.35;65.64
42771;BME280;28426;42.872;25.314;2023-03-13T02:08:22;97368.69;;;0.30;65.49
42771;BME280;28426;42.872;25.314;2023-03-13T02:11:00;97373.91;;;0.19;65.58
42771;BME280;28426;42.872;25.314;2023-03-13T02:13:33;97376.72;;;-0.09;66.47
42771;BME280;28426;42.872;25.314;2023-03-13T02:16:05;97383.50;;;-0.18;67.53
42771;BME280;28426;42.872;25.314;2023-03-13T02:18:39;97372.25;;;-0.20;67.91
42771;BME280;28426;42.872;25.314;2023-03-13T02:21:13;97383.03;;;-0.11;67.81
42771;BME280;28426;42.872;25.314;2023-03-13T02:23:51;97380.19;;;-0.08;67.96
42771;BME280;28426;42.872;25.314;2023-03-13T02:26:26;97382.31;;;-0.14;67.77
42771;BME280;28426;42.872;25.314;2023-03-13T02:28:58;97383.91;;;-0.24;67.80
42771;BME280;28426;42.872;25.314;2023-03-13T02:31:29;97386.91;;;-0.42;67.28
42771;BME280;28426;42.872;25.314;2023-03-13T02:34:00;97388.66;;;-0.67;68.39
42771;BME280;28426;42.872;25.314;2023-03-13T02:36:31;97391.03;;;-0.63;70.17
42771;BME280;28426;42.872;25.314;2023-03-13T02:39:05;97391.56;;;-0.58;69.33
42771;BME280;28426;42.872;25.314;2023-03-13T02:41:39;97395.34;;;-0.62;68.68
42771;BME280;28426;42.872;25.314;2023-03-13T02:44:11;97408.88;;;-0.82;70.07
42771;BME280;28426;42.872;25.314;2023-03-13T02:46:44;97403.31;;;-0.77;69.94
42771;BME280;28426;42.872;25.314;2023-03-13T02:49:21;97396.63;;;-0.81;70.06
42771;BME280;28426;42.872;25.314;2023-03-13T02:51:54;97401.22;;;-0.72;69.66
42771;BME280;28426;42.872;25.314;2023-03-13T02:54:29;97404.06;;;-0.75;69.01
42771;BME280;28426;42.872;25.314;2023-03-13T02:57:05;97406.69;;;-0.88;68.91
42771;BME280;28426;42.872;25.314;2023-03-13T02:59:36;97410.44;;;-1.05;68.70
42771;BME280;28426;42.872;25.314;2023-03-13T03:02:06;97415.34;;;-1.26;69.50
42771;BME280;28426;42.872;25.314;2023-03-13T03:04:37;97415.25;;;-1.25;73.36
42771;BME280;28426;42.872;25.314;2023-03-13T03:07:10;97421.97;;;-1.21;71.93
42771;BME280;28426;42.872;25.314;2023-03-13T03:09:41;97421.31;;;-1.24;70.24
42771;BME280;28426;42.872;25.314;2023-03-13T03:12:19;97427.59;;;-1.40;69.92
42771;BME280;28426;42.872;25.314;2023-03-13T03:14:50;97422.13;;;-1.50;74.76
42771;BME280;28426;42.872;25.314;2023-03-13T03:17:22;97438.69;;;-1.36;74.28
42771;BME280;28426;42.872;25.314;2023-03-13T03:19:53;97444.69;;;-1.34;71.65
42771;BME280;28426;42.872;25.314;2023-03-13T03:22:24;97446.00;;;-1.41;70.78
42771;BME280;28426;42.872;25.314;2023-03-13T03:24:55;97429.44;;;-1.55;70.71
42771;BME280;28426;42.872;25.314;2023-03-13T03:27:28;97428.28;;;-1.51;75.10
42771;BME280;28426;42.872;25.314;2023-03-13T03:29:59;97423.59;;;-1.46;72.99
42771;BME280;28426;42.872;25.314;2023-03-13T03:32:30;97434.06;;;-1.46;71.39
42771;BME280;28426;42.872;25.314;2023-03-13T03:35:00;97439.38;;;-1.60;70.84
42771;BME280;28426;42.872;25.314;2023-03-13T03:37:31;97443.00;;;-1.76;70.91
42771;BME280;28426;42.872;25.314;2023-03-13T03:40:04;97453.25;;;-1.73;75.72
42771;BME280;28426;42.872;25.314;2023-03-13T03:42:38;97455.25;;;-1.63;73.92
42771;BME280;28426;42.872;25.314;2023-03-13T03:45:09;97451.84;;;-1.51;73.03
42771;BME280;28426;42.872;25.314;2023-03-13T03:47:40;97462.75;;;-1.44;72.30
42771;BME280;28426;42.872;25.314;2023-03-13T03:50:10;97463.59;;;-1.43;71.26
42771;BME280;28426;42.872;25.314;2023-03-13T03:52:51;97468.41;;;-1.50;71.03
42771;BME280;28426;42.872;25.314;2023-03-13T03:55:24;97480.88;;;-1.68;71.11
42771;BME280;28426;42.872;25.314;2023-03-13T03:57:57;97475.22;;;-1.75;75.67
42771;BME280;28426;42.872;25.314;2023-03-13T04:00:47;97485.09;;;-1.66;73.22
42771;BME280;28426;42.872;25.314;2023-03-13T04:03:18;97485.75;;;-1.62;69.92
42771;BME280;28426;42.872;25.314;2023-03-13T04:05:48;97489.16;;;-1.75;72.40
42771;BME280;28426;42.872;25.314;2023-03-13T04:08:21;97484.88;;;-1.90;73.09
42771;BME280;28426;42.872;25.314;2023-03-13T04:10:53;97488.34;;;-1.90;74.24
42771;BME280;28426;42.872;25.314;2023-03-13T04:13:27;97494.22;;;-1.86;73.59
42771;BME280;28426;42.872;25.314;2023-03-13T04:15:58;97494.16;;;-1.72;73.47
42771;BME280;28426;42.872;25.314;2023-03-13T04:18:29;97491.25;;;-1.67;72.83
42771;BME280;28426;42.872;25.314;2023-03-13T04:21:00;97501.19;;;-1.72;71.88
42771;BME280;28426;42.872;25.314;2023-03-13T04:23:39;97498.50;;;-1.85;71.32
42771;BME280;28426;42.872;25.314;2023-03-13T04:26:11;97499.75;;;-2.05;71.61
42771;BME280;28426;42.872;25.314;2023-03-13T04:28:45;97516.50;;;-2.22;72.68
42771;BME280;28426;42.872;25.314;2023-03-13T04:31:21;97530.03;;;-2.16;75.96
42771;BME280;28426;42.872;25.314;2023-03-13T04:34:24;97529.53;;;-2.08;75.03
42771;BME280;28426;42.872;25.314;2023-03-13T04:37:13;97530.38;;;-1.93;74.56
42771;BME280;28426;42.872;25.314;2023-03-13T04:40:03;97537.28;;;-1.92;72.95
42771;BME280;28426;42.872;25.314;2023-03-13T04:42:53;97540.38;;;-2.00;72.26
42771;BME280;28426;42.872;25.314;2023-03-13T04:45:38;97552.75;;;-2.16;72.22
42771;BME280;28426;42.872;25.314;2023-03-13T04:48:34;97549.44;;;-2.20;77.39
42771;BME280;28426;42.872;25.314;2023-03-13T04:51:31;97550.69;;;-2.11;75.04
42771;BME280;28426;42.872;25.314;2023-03-13T04:54:18;97544.19;;;-2.05;72.72
42771;BME280;28426;42.872;25.314;2023-03-13T04:56:57;97542.28;;;-2.16;73.54
42771;BME280;28426;42.872;25.314;2023-03-13T04:59:53;97551.78;;;-2.15;74.87
42771;BME280;28426;42.872;25.314;2023-03-13T05:02:43;97548.88;;;-2.11;73.18
42771;BME280;28426;42.872;25.314;2023-03-13T05:05:35;97569.53;;;-2.20;72.18
42771;BME280;28426;42.872;25.314;2023-03-13T05:08:41;97571.31;;;-2.35;72.92
42771;BME280;28426;42.872;25.314;2023-03-13T05:11:30;97576.31;;;-2.32;78.48
42771;BME280;28426;42.872;25.314;2023-03-13T05:14:30;97571.50;;;-2.09;76.01
42771;BME280;28426;42.872;25.314;2023-03-13T05:17:21;97568.31;;;-1.86;74.96
42771;BME280;28426;42.872;25.314;2023-03-13T05:20:10;97557.53;;;-1.66;73.29
42771;BME280;28426;42.872;25.314;2023-03-13T05:23:03;97570.44;;;-1.36;73.07
42771;BME280;28426;42.872;25.314;2023-03-13T05:26:09;97566.97;;;-1.09;71.36
42771;BME280;28426;42.872;25.314;2023-03-13T05:29:14;97569.97;;;-0.87;70.27
42771;BME280;28426;42.872;25.314;2023-03-13T05:32:04;97573.34;;;-0.59;70.96
42771;BME280;28426;42.872;25.314;2023-03-13T05:34:58;97571.72;;;-0.34;70.16
42771;BME280;28426;42.872;25.314;2023-03-13T05:37:43;97565.50;;;-0.07;70.07
42771;BME280;28426;42.872;25.314;2023-03-13T05:40:37;97580.06;;;0.23;69.43
42771;BME280;28426;42.872;25.314;2023-03-13T05:43:43;97582.09;;;0.57;69.29
42771;BME280;28426;42.872;25.314;2023-03-13T05:46:52;97588.13;;;0.95;68.77
42771;BME280;28426;42.872;25.314;2023-03-13T05:49:32;97580.59;;;1.26;67.66
42771;BME280;28426;42.872;25.314;2023-03-13T05:52:23;97582.63;;;1.58;67.09
42771;BME280;28426;42.872;25.314;2023-03-13T05:55:10;97582.88;;;1.89;65.70
42771;BME280;28426;42.872;25.314;2023-03-13T05:57:47;97571.19;;;2.16;64.28
42771;BME280;28426;42.872;25.314;2023-03-13T06:00:18;97574.53;;;2.41;63.92
42771;BME280;28426;42.872;25.314;2023-03-13T06:03:15;97579.75;;;2.76;63.63
42771;BME280;28426;42.872;25.314;2023-03-13T06:05:48;97583.75;;;3.03;62.35
42771;BME280;28426;42.872;25.314;2023-03-13T06:08:31;97586.75;;;3.31;62.50
42771;BME280;28426;42.872;25.314;2023-03-13T06:11:04;97580.00;;;3.59;61.94
42771;BME280;28426;42.872;25.314;2023-03-13T06:13:35;97586.28;;;3.89;61.13
42771;BME280;28426;42.872;25.314;2023-03-13T06:16:25;97579.75;;;4.25;60.01
42771;BME280;28426;42.872;25.314;2023-03-13T06:19:10;97582.41;;;4.66;60.60
42771;BME280;28426;42.872;25.314;2023-03-13T06:21:41;97588.72;;;5.04;58.95
42771;BME280;28426;42.872;25.314;2023-03-13T06:24:11;97596.28;;;5.48;58.61
42771;BME280;28426;42.872;25.314;2023-03-13T06:26:47;97585.28;;;6.01;58.62
42771;BME280;28426;42.872;25.314;2023-03-13T06:29:17;97583.72;;;6.56;55.23
42771;BME280;28426;42.872;25.314;2023-03-13T06:31:48;97579.59;;;7.08;55.79
42771;BME280;28426;42.872;25.314;2023-03-13T06:34:18;97573.69;;;7.51;53.22
42771;BME280;28426;42.872;25.314;2023-03-13T06:36:49;97573.63;;;7.87;53.03
42771;BME280;28426;42.872;25.314;2023-03-13T06:39:19;97571.19;;;8.29;50.75
42771;BME280;28426;42.872;25.314;2023-03-13T06:41:52;97575.38;;;8.74;50.39
42771;BME280;28426;42.872;25.314;2023-03-13T06:44:23;97580.13;;;9.14;49.67
42771;BME280;28426;42.872;25.314;2023-03-13T06:46:53;97571.34;;;9.55;48.82
42771;BME280;28426;42.872;25.314;2023-03-13T06:49:24;97573.81;;;9.98;48.27
42771;BME280;28426;42.872;25.314;2023-03-13T06:51:56;97578.69;;;10.43;47.94
42771;BME280;28426;42.872;25.314;2023-03-13T06:54:26;97572.66;;;10.89;46.73
42771;BME280;28426;42.872;25.314;2023-03-13T06:56:59;97574.19;;;11.38;44.55
42771;BME280;28426;42.872;25.314;2023-03-13T06:59:30;97577.19;;;11.82;44.68
42771;BME280;28426;42.872;25.314;2023-03-13T07:02:01;97581.13;;;12.25;43.21
42771;BME280;28426;42.872;25.314;2023-03-13T07:04:32;97580.72;;;12.58;40.81
42771;BME280;28426;42.872;25.314;2023-03-13T07:07:03;97574.50;;;12.88;40.78
42771;BME280;28426;42.872;25.314;2023-03-13T07:09:34;97571.31;;;13.14;38.51
42771;BME280;28426;42.872;25.314;2023-03-13T07:12:07;97567.44;;;13.39;38.61
42771;BME280;28426;42.872;25.314;2023-03-13T07:14:38;97571.78;;;13.62;38.88
42771;BME280;28426;42.872;25.314;2023-03-13T07:17:09;97566.88;;;13.94;38.11
42771;BME280;28426;42.872;25.314;2023-03-13T07:19:39;97568.75;;;14.29;38.29
42771;BME280;28426;42.872;25.314;2023-03-13T07:22:10;97565.81;;;14.59;37.29
42771;BME280;28426;42.872;25.314;2023-03-13T07:24:40;97566.19;;;14.91;37.17
42771;BME280;28426;42.872;25.314;2023-03-13T07:27:13;97560.88;;;15.18;35.73
42771;BME280;28426;42.872;25.314;2023-03-13T07:29:47;97551.41;;;15.36;35.31
42771;BME280;28426;42.872;25.314;2023-03-13T07:32:18;97559.06;;;15.52;35.20
42771;BME280;28426;42.872;25.314;2023-03-13T07:34:49;97547.69;;;15.64;34.62
42771;BME280;28426;42.872;25.314;2023-03-13T07:37:19;97541.91;;;15.74;33.54
42771;BME280;28426;42.872;25.314;2023-03-13T07:39:50;97548.09;;;15.74;32.72
42771;BME280;28426;42.872;25.314;2023-03-13T07:42:23;97545.63;;;15.93;32.70
42771;BME280;28426;42.872;25.314;2023-03-13T07:44:54;97534.22;;;16.18;32.63
42771;BME280;28426;42.872;25.314;2023-03-13T07:47:24;97526.91;;;16.39;31.79
42771;BME280;28426;42.872;25.314;2023-03-13T07:49:55;97530.41;;;16.46;31.24
42771;BME280;28426;42.872;25.314;2023-03-13T07:52:25;97524.38;;;16.51;31.41
42771;BME280;28426;42.872;25.314;2023-03-13T07:54:56;97514.34;;;16.65;29.79
42771;BME280;28426;42.872;25.314;2023-03-13T07:57:29;97512.03;;;16.82;30.73
42771;BME280;28426;42.872;25.314;2023-03-13T08:00:00;97510.69;;;17.05;29.80
42771;BME280;28426;42.872;25.314;2023-03-13T08:02:38;97507.94;;;17.11;29.22
42771;BME280;28426;42.872;25.314;2023-03-13T08:05:08;97502.47;;;17.25;29.86
42771;BME280;28426;42.872;25.314;2023-03-13T08:07:39;97510.63;;;17.44;29.63
42771;BME280;28426;42.872;25.314;2023-03-13T08:10:10;97500.19;;;17.47;28.63
42771;BME280;28426;42.872;25.314;2023-03-13T08:12:44;97497.78;;;17.39;28.34
42771;BME280;28426;42.872;25.314;2023-03-13T08:15:15;97499.44;;;17.40;28.49
42771;BME280;28426;42.872;25.314;2023-03-13T08:17:52;97491.84;;;17.30;27.78
42771;BME280;28426;42.872;25.314;2023-03-13T08:20:22;97490.13;;;17.36;28.86
42771;BME280;28426;42.872;25.314;2023-03-13T08:22:55;97496.34;;;17.36;27.94
42771;BME280;28426;42.872;25.314;2023-03-13T08:25:26;97484.53;;;17.37;27.96
42771;BME280;28426;42.872;25.314;2023-03-13T08:27:59;97483.47;;;17.38;27.68
42771;BME280;28426;42.872;25.314;2023-03-13T08:30:29;97493.22;;;17.39;27.11
42771;BME280;28426;42.872;25.314;2023-03-13T08:33:00;97488.72;;;17.33;27.41
42771;BME280;28426;42.872;25.314;2023-03-13T08:35:33;97497.13;;;17.44;26.55
42771;BME280;28426;42.872;25.314;2023-03-13T08:38:04;97501.94;;;17.42;26.77
42771;BME280;28426;42.872;25.314;2023-03-13T08:40:35;97502.25;;;17.52;27.00
42771;BME280;28426;42.872;25.314;2023-03-13T08:43:08;97493.94;;;17.54;25.96
42771;BME280;28426;42.872;25.314;2023-03-13T08:45:38;97491.63;;;17.57;25.78
42771;BME280;28426;42.872;25.314;2023-03-13T08:48:09;97494.09;;;17.59;25.43
42771;BME280;28426;42.872;25.314;2023-03-13T08:50:39;97477.69;;;17.60;25.47
42771;BME280;28426;42.872;25.314;2023-03-13T08:53:10;97476.59;;;17.68;25.77
42771;BME280;28426;42.872;25.314;2023-03-13T08:55:41;97466.31;;;17.77;25.90
42771;BME280;28426;42.872;25.314;2023-03-13T08:58:14;97464.97;;;17.86;25.66
42771;BME280;28426;42.872;25.314;2023-03-13T09:00:44;97462.91;;;17.88;24.04
42771;BME280;28426;42.872;25.314;2023-03-13T09:03:15;97462.53;;;17.85;24.55
42771;BME280;28426;42.872;25.314;2023-03-13T09:05:46;97451.94;;;17.83;24.47
42771;BME280;28426;42.872;25.314;2023-03-13T09:08:22;97452.81;;;17.77;24.42
42771;BME280;28426;42.872;25.314;2023-03-13T09:10:56;97456.41;;;17.71;24.01
42771;BME280;28426;42.872;25.314;2023-03-13T09:13:31;97461.09;;;17.57;23.82
42771;BME280;28426;42.872;25.314;2023-03-13T09:16:04;97469.78;;;17.40;24.02
42771;BME280;28426;42.872;25.314;2023-03-13T09:18:36;97460.56;;;17.22;24.17
42771;BME280;28426;42.872;25.314;2023-03-13T09:21:09;97450.13;;;17.00;23.71
42771;BME280;28426;42.872;25.314;2023-03-13T09:23:39;97450.53;;;16.65;23.17
42771;BME280;28426;42.872;25.314;2023-03-13T09:26:11;97443.22;;;16.40;24.29
42771;BME280;28426;42.872;25.314;2023-03-13T09:28:45;97436.88;;;16.21;24.81
42771;BME280;28426;42.872;25.314;2023-03-13T09:31:16;97432.78;;;16.05;24.63
42771;BME280;28426;42.872;25.314;2023-03-13T09:33:49;97437.56;;;15.82;24.73
42771;BME280;28426;42.872;25.314;2023-03-13T09:36:20;97425.41;;;15.60;24.74
42771;BME280;28426;42.872;25.314;2023-03-13T09:38:51;97426.47;;;15.45;25.10
42771;BME280;28426;42.872;25.314;2023-03-13T09:41:26;97418.19;;;15.40;25.13
42771;BME280;28426;42.872;25.314;2023-03-13T09:44:06;97411.56;;;15.36;25.34
42771;BME280;28426;42.872;25.314;2023-03-13T09:46:46;97417.16;;;15.34;25.14
42771;BME280;28426;42.872;25.314;2023-03-13T09:49:28;97412.00;;;15.26;24.87
42771;BME280;28426;42.872;25.314;2023-03-13T09:52:04;97419.00;;;15.13;24.72
42771;BME280;28426;42.872;25.314;2023-03-13T09:54:45;97418.81;;;15.01;25.07
42771;BME280;28426;42.872;25.314;2023-03-13T09:57:22;97410.34;;;14.91;24.41
42771;BME280;28426;42.872;25.314;2023-03-13T09:59:58;97413.19;;;14.76;23.99
42771;BME280;28426;42.872;25.314;2023-03-13T10:02:34;97410.25;;;14.64;23.64
42771;BME280;28426;42.872;25.314;2023-03-13T10:05:11;97417.25;;;14.51;23.55
42771;BME280;28426;42.872;25.314;2023-03-13T10:07:43;97416.81;;;14.41;24.56
42771;BME280;28426;42.872;25.314;2023-03-13T10:10:15;97414.53;;;14.38;23.82
42771;BME280;28426;42.872;25.314;2023-03-13T10:12:48;97412.66;;;14.32;23.87
42771;BME280;28426;42.872;25.314;2023-03-13T10:15:33;97422.97;;;14.21;23.96
42771;BME280;28426;42.872;25.314;2023-03-13T10:18:14;97413.84;;;14.16;24.08
42771;BME280;28426;42.872;25.314;2023-03-13T10:20:48;97406.19;;;14.12;22.58
42771;BME280;28426;42.872;25.314;2023-03-13T10:23:23;97400.41;;;14.09;23.95
42771;BME280;28426;42.872;25.314;2023-03-13T10:25:56;97399.81;;;14.20;23.97
42771;BME280;28426;42.872;25.314;2023-03-13T10:28:27;97401.88;;;14.18;23.05
42771;BME280;28426;42.872;25.314;2023-03-13T10:31:03;97396.50;;;14.18;23.42
42771;BME280;28426;42.872;25.314;2023-03-13T10:33:37;97390.53;;;14.23;21.12
42771;BME280;28426;42.872;25.314;2023-03-13T10:36:09;97375.25;;;14.17;22.31
42771;BME280;28426;42.872;25.314;2023-03-13T10:38:48;97382.91;;;14.20;22.65
42771;BME280;28426;42.872;25.314;2023-03-13T10:41:24;97365.78;;;14.28;22.89
42771;BME280;28426;42.872;25.314;2023-03-13T10:43:59;97367.25;;;14.44;23.14
42771;BME280;28426;42.872;25.314;2023-03-13T10:46:33;97364.41;;;14.65;23.20
42771;BME280;28426;42.872;25.314;2023-03-13T10:49:13;97369.00;;;14.92;22.88
42771;BME280;28426;42.872;25.314;2023-03-13T10:51:47;97360.31;;;15.17;21.57
42771;BME280;28426;42.872;25.314;2023-03-13T10:54:22;97350.97;;;15.40;22.07
42771;BME280;28426;42.872;25.314;2023-03-13T10:57:18;97344.09;;;15.64;21.43
42771;BME280;28426;42.872;25.314;2023-03-13T10:59:51;97346.88;;;15.90;22.16
42771;BME280;28426;42.872;25.314;2023-03-13T11:02:26;97341.84;;;16.14;22.02
42771;BME280;28426;42.872;25.314;2023-03-13T11:04:58;97343.38;;;16.35;21.62
42771;BME280;28426;42.872;25.314;2023-03-13T11:07:33;97334.97;;;16.50;21.66
42771;BME280;28426;42.872;25.314;2023-03-13T11:10:16;97337.00;;;16.62;20.60
42771;BME280;28426;42.872;25.314;2023-03-13T11:12:49;97329.88;;;16.74;21.59
42771;BME280;28426;42.872;25.314;2023-03-13T11:15:24;97332.88;;;16.84;20.91
42771;BME280;28426;42.872;25.314;2023-03-13T11:18:04;97327.59;;;16.96;21.00
42771;BME280;28426;42.872;25.314;2023-03-13T11:20:38;97325.03;;;17.08;20.50
42771;BME280;28426;42.872;25.314;2023-03-13T11:23:16;97319.19;;;17.11;20.20
42771;BME280;28426;42.872;25.314;2023-03-13T11:25:57;97310.06;;;17.12;20.71
42771;BME280;28426;42.872;25.314;2023-03-13T11:28:43;97302.97;;;17.18;20.33
42771;BME280;28426;42.872;25.314;2023-03-13T11:31:21;97305.31;;;17.33;20.75
42771;BME280;28426;42.872;25.314;2023-03-13T11:34:03;97301.25;;;17.43;19.74
42771;BME280;28426;42.872;25.314;2023-03-13T11:36:37;97308.00;;;17.52;20.45
42771;BME280;28426;42.872;25.314;2023-03-13T11:39:27;97299.00;;;17.58;18.29
42771;BME280;28426;42.872;25.314;2023-03-13T11:42:08;97290.59;;;17.67;20.48
42771;BME280;28426;42.872;25.314;2023-03-13T11:44:49;97284.19;;;17.80;20.77
42771;BME280;28426;42.872;25.314;2023-03-13T11:47:44;97278.88;;;17.91;18.90
42771;BME280;28426;42.872;25.314;2023-03-13T11:50:33;97288.00;;;17.90;19.22
42771;BME280;28426;42.872;25.314;2023-03-13T11:53:19;97281.19;;;17.88;19.04
42771;BME280;28426;42.872;25.314;2023-03-13T11:55:59;97276.50;;;17.83;19.58
42771;BME280;28426;42.872;25.314;2023-03-13T11:58:49;97272.25;;;17.75;17.94
42771;BME280;28426;42.872;25.314;2023-03-13T12:01:23;97275.03;;;17.69;19.27
42771;BME280;28426;42.872;25.314;2023-03-13T12:03:58;97269.72;;;17.62;19.60
42771;BME280;28426;42.872;25.314;2023-03-13T12:06:36;97268.50;;;17.58;19.66
42771;BME280;28426;42.872;25.314;2023-03-13T12:09:22;97260.63;;;17.56;19.54
42771;BME280;28426;42.872;25.314;2023-03-13T12:11:57;97256.28;;;17.55;19.93
42771;BME280;28426;42.872;25.314;2023-03-13T12:14:33;97257.19;;;17.49;19.05
42771;BME280;28426;42.872;25.314;2023-03-13T12:17:08;97252.91;;;17.41;19.08
42771;BME280;28426;42.872;25.314;2023-03-13T12:19:45;97243.56;;;17.44;19.91
42771;BME280;28426;42.872;25.314;2023-03-13T12:22:25;97240.72;;;17.38;18.82
42771;BME280;28426;42.872;25.314;2023-03-13T12:25:01;97236.13;;;17.20;19.05
42771;BME280;28426;42.872;25.314;2023-03-13T12:27:33;97241.19;;;16.91;16.78
42771;BME280;28426;42.872;25.314;2023-03-13T12:30:18;97242.53;;;16.56;16.32
42771;BME280;28426;42.872;25.314;2023-03-13T12:32:57;97244.06;;;16.20;16.95
42771;BME280;28426;42.872;25.314;2023-03-13T12:35:30;97249.63;;;15.86;17.30
42771;BME280;28426;42.872;25.314;2023-03-13T12:38:11;97246.88;;;15.47;17.40
42771;BME280;28426;42.872;25.314;2023-03-13T12:40:48;97242.88;;;15.11;17.25
42771;BME280;28426;42.872;25.314;2023-03-13T12:43:22;97241.28;;;14.76;17.36
42771;BME280;28426;42.872;25.314;2023-03-13T12:46:09;97240.88;;;14.45;17.62
42771;BME280;28426;42.872;25.314;2023-03-13T12:48:55;97234.25;;;14.21;17.27
42771;BME280;28426;42.872;25.314;2023-03-13T12:51:39;97233.00;;;14.03;18.52
42771;BME280;28426;42.872;25.314;2023-03-13T12:54:29;97243.09;;;13.88;18.46
42771;BME280;28426;42.872;25.314;2023-03-13T12:57:24;97239.94;;;13.77;18.13
42771;BME280;28426;42.872;25.314;2023-03-13T13:00:06;97242.19;;;13.67;18.33
42771;BME280;28426;42.872;25.314;2023-03-13T13:02:43;97240.72;;;13.57;18.67
42771;BME280;28426;42.872;25.314;2023-03-13T13:05:18;97237.81;;;13.52;18.48
42771;BME280;28426;42.872;25.314;2023-03-13T13:07:54;97241.88;;;13.41;18.59
42771;BME280;28426;42.872;25.314;2023-03-13T13:10:28;97238.53;;;13.39;19.05
42771;BME280;28426;42.872;25.314;2023-03-13T13:13:27;97233.59;;;13.36;18.34
42771;BME280;28426;42.872;25.314;2023-03-13T13:16:02;97245.13;;;13.37;18.96
42771;BME280;28426;42.872;25.314;2023-03-13T13:18:34;97231.53;;;13.38;19.22
42771;BME280;28426;42.872;25.314;2023-03-13T13:21:25;97235.88;;;13.39;19.32
42771;BME280;28426;42.872;25.314;2023-03-13T13:27:44;97217.59;;;13.50;19.64
42771;BME280;28426;42.872;25.314;2023-03-13T13:30:30;97220.91;;;13.52;18.37
42771;BME280;28426;42.872;25.314;2023-03-13T13:36:27;97216.69;;;13.36;18.15
42771;BME280;28426;42.872;25.314;2023-03-13T13:38:58;97215.00;;;13.28;18.94
42771;BME280;28426;42.872;25.314;2023-03-13T13:41:35;97211.06;;;13.24;19.20
42771;BME280;28426;42.872;25.314;2023-03-13T13:47:03;97212.91;;;13.23;20.50
42771;BME280;28426;42.872;25.314;2023-03-13T13:49:52;97202.19;;;13.23;20.56
42771;BME280;28426;42.872;25.314;2023-03-13T13:52:38;97206.09;;;13.20;19.70